EFMA/MHQ METAR and TAF weather

Enter ICAO airport designator
Station Type Date Time Source
EFMA METAR 2018/09/21 23:50 UTC NOAA

EFMA 212350Z AUTO 19021KT 9999 BKN013 BKN115 13/11 Q0991


Station Type Date Time Source
EFMA Decoded METAR 2018/09/21 23:50 UTC NOAA

Mariehamn / Aland Island, Finland (EFMA) 60-07N 019-54E
Sep 21, 2018 - 07:50 PM EDT / 2018.09.21 2350 UTC
Wind: from the S (190 degrees) at 24 MPH (21 KT):0
Visibility: greater than 7 mile(s):0
Sky conditions: mostly cloudy
Temperature: 55 F (13 C)
Dew Point: 51 F (11 C)
Relative Humidity: 87%
Pressure (altimeter): 29.26 in. Hg (0991 hPa)
ob: EFMA 212350Z AUTO 19021KT 9999 BKN013 BKN115 13/11 Q0991
cycle: 0

Station Type Date Time Source
EFMA TAF 2014/05/01 21:18 UTC NOAA

TAF TAF EFMA 302037Z 3021/0106 08008KT CAVOK
TEMPO 3023/0101 02010KT 6000 RASN
BECMG 0101/0103 01012KT 4000 RASN BKN010 OVC025


Example: see airport list